This is the latest recevied weather packets stored in our database for station/object OZ1IEP-5. If no packets are shown the sender has not sent any weather packets the latest 10 day(s).
| Time | Temp. | Humidity | Pressure | Rain* | Wind** | Luminosity | Snow |
|---|---|---|---|---|---|---|---|
| 1777707607 | 17.78° C | 59% | 1016.5 hPa | 0 mm | - | 62 W/m² | - |
| 1777707011 | 17.22° C | 60% | 1016.6 hPa | 0 mm | - | 185 W/m² | - |
| 1777706406 | 16.67° C | 63% | 1016.6 hPa | 0 mm | - | 156 W/m² | - |
| 1777705806 | 16.11° C | 65% | 1016.7 hPa | 0 mm | - | 130 W/m² | - |
| 1777705213 | 15.56° C | 68% | 1016.7 hPa | 0 mm | - | 44 W/m² | - |
| 1777704005 | 14.44° C | 72% | 1016.8 hPa | 0 mm | - | 69 W/m² | - |
| 1777703408 | 13.89° C | 73% | 1016.8 hPa | 0 mm | - | 40 W/m² | - |
| 1777702806 | 13.33° C | 75% | 1016.9 hPa | 0 mm | - | 37 W/m² | - |
| 1777702207 | 12.78° C | 75% | 1016.9 hPa | 0 mm | - | 35 W/m² | - |
| 1777701609 | 12.22° C | 74% | 1017 hPa | 0 mm | - | 35 W/m² | - |
| 1777701006 | 12.22° C | 75% | 1017.1 hPa | 0 mm | - | 32 W/m² | - |
| 1777700406 | 11.67° C | 75% | 1017.2 hPa | 0 mm | - | 32 W/m² | - |
| 1777699808 | 11.67° C | 75% | 1017.2 hPa | 0 mm | - | 33 W/m² | - |
| 1777699206 | 11.11° C | 75% | 1017.3 hPa | 0 mm | - | 30 W/m² | - |
| 1777698606 | 11.11° C | 75% | 1017.3 hPa | 0 mm | - | 44 W/m² | - |
| 1777698008 | 10.56° C | 75% | 1017.3 hPa | 0 mm | - | 37 W/m² | - |
| 1777697406 | 10.56° C | 75% | 1017.6 hPa | 0 mm | - | 42 W/m² | - |
| 1777696806 | 10° C | 76% | 1017.6 hPa | 0 mm | - | 32 W/m² | - |
| 1777696209 | 9.44° C | 75% | 1017.7 hPa | 0 mm | - | 39 W/m² | - |
| 1777695606 | 9.44° C | 75% | 1017.8 hPa | 0 mm | - | 33 W/m² | - |
| 1777695005 | 9.44° C | 75% | 1017.8 hPa | 0 mm | - | 19 W/m² | - |
| 1777694409 | 9.44° C | 75% | 1017.9 hPa | 0 mm | - | 16 W/m² | - |
| 1777693806 | 9.44° C | 74% | 1018.2 hPa | 0 mm | - | 11 W/m² | - |
| 1777693206 | 9.44° C | 74% | 1018.3 hPa | 0 mm | - | 7 W/m² | - |
| 1777692608 | 9.44° C | 73% | 1018.3 hPa | 0 mm | - | 0 W/m² | - |
* Rain latest hour (hover to see other rain measurements)
** Current wind speed in m/s (hover to see current wind gust speed)